sensor_id;sensor_type;location;lat;lon;timestamp;pressure;altitude;pressure_sealevel;temperature;humidity
17383;BME280;8809;51.892;8.384;2023-03-22T00:02:12;100083.38;;;9.94;100.00
17383;BME280;8809;51.892;8.384;2023-03-22T00:04:42;100086.09;;;9.97;100.00
17383;BME280;8809;51.892;8.384;2023-03-22T00:07:09;100080.94;;;9.98;100.00
17383;BME280;8809;51.892;8.384;2023-03-22T00:09:36;100089.72;;;10.02;100.00
17383;BME280;8809;51.892;8.384;2023-03-22T00:12:03;100085.47;;;10.04;100.00
17383;BME280;8809;51.892;8.384;2023-03-22T00:14:30;100086.47;;;10.08;100.00
17383;BME280;8809;51.892;8.384;2023-03-22T00:16:57;100076.94;;;10.08;100.00
17383;BME280;8809;51.892;8.384;2023-03-22T00:19:24;100075.22;;;10.09;100.00
17383;BME280;8809;51.892;8.384;2023-03-22T00:21:55;100072.63;;;10.09;100.00
17383;BME280;8809;51.892;8.384;2023-03-22T00:24:22;100073.59;;;10.12;100.00
17383;BME280;8809;51.892;8.384;2023-03-22T00:26:50;100077.06;;;10.13;100.00
17383;BME280;8809;51.892;8.384;2023-03-22T00:29:17;100067.59;;;10.15;100.00
17383;BME280;8809;51.892;8.384;2023-03-22T00:31:44;100063.44;;;10.18;100.00
17383;BME280;8809;51.892;8.384;2023-03-22T00:34:11;100068.53;;;10.17;100.00
17383;BME280;8809;51.892;8.384;2023-03-22T00:36:38;100058.94;;;10.16;100.00
17383;BME280;8809;51.892;8.384;2023-03-22T00:39:06;100060.66;;;10.15;100.00
17383;BME280;8809;51.892;8.384;2023-03-22T00:41:33;100067.53;;;10.13;100.00
17383;BME280;8809;51.892;8.384;2023-03-22T00:44:00;100062.53;;;10.18;100.00
17383;BME280;8809;51.892;8.384;2023-03-22T00:46:27;100060.72;;;10.17;100.00
17383;BME280;8809;51.892;8.384;2023-03-22T00:48:54;100066.06;;;10.20;100.00
17383;BME280;8809;51.892;8.384;2023-03-22T00:51:22;100054.81;;;10.21;100.00
17383;BME280;8809;51.892;8.384;2023-03-22T00:53:49;100056.56;;;10.22;100.00
17383;BME280;8809;51.892;8.384;2023-03-22T00:56:18;100050.53;;;10.23;100.00
17383;BME280;8809;51.892;8.384;2023-03-22T00:58:47;100053.06;;;10.21;100.00
17383;BME280;8809;51.892;8.384;2023-03-22T01:01:14;100048.75;;;10.22;100.00
17383;BME280;8809;51.892;8.384;2023-03-22T01:03:42;100039.09;;;10.19;100.00
17383;BME280;8809;51.892;8.384;2023-03-22T01:06:10;100048.69;;;10.20;100.00
17383;BME280;8809;51.892;8.384;2023-03-22T01:08:37;100046.16;;;10.22;100.00
17383;BME280;8809;51.892;8.384;2023-03-22T01:11:05;100038.31;;;10.22;100.00
17383;BME280;8809;51.892;8.384;2023-03-22T01:13:35;100040.09;;;10.23;100.00
17383;BME280;8809;51.892;8.384;2023-03-22T01:16:03;100035.78;;;10.23;100.00
17383;BME280;8809;51.892;8.384;2023-03-22T01:18:30;100029.69;;;10.23;100.00
17383;BME280;8809;51.892;8.384;2023-03-22T01:20:57;100031.44;;;10.24;100.00
17383;BME280;8809;51.892;8.384;2023-03-22T01:23:26;100025.34;;;10.23;100.00
17383;BME280;8809;51.892;8.384;2023-03-22T01:25:53;100021.84;;;10.23;100.00
17383;BME280;8809;51.892;8.384;2023-03-22T01:28:20;100014.94;;;10.23;100.00
17383;BME280;8809;51.892;8.384;2023-03-22T01:30:48;100024.56;;;10.26;100.00
17383;BME280;8809;51.892;8.384;2023-03-22T01:33:15;100021.13;;;10.27;100.00
17383;BME280;8809;51.892;8.384;2023-03-22T01:35:42;100016.75;;;10.26;100.00
17383;BME280;8809;51.892;8.384;2023-03-22T01:38:09;100014.97;;;10.25;100.00
17383;BME280;8809;51.892;8.384;2023-03-22T01:40:36;100014.94;;;10.23;100.00
17383;BME280;8809;51.892;8.384;2023-03-22T01:43:09;100010.53;;;10.22;100.00
17383;BME280;8809;51.892;8.384;2023-03-22T01:45:41;100013.09;;;10.21;100.00
17383;BME280;8809;51.892;8.384;2023-03-22T01:48:23;100001.78;;;10.20;100.00
17383;BME280;8809;51.892;8.384;2023-03-22T01:50:57;99999.16;;;10.19;100.00
17383;BME280;8809;51.892;8.384;2023-03-22T01:53:29;99993.06;;;10.18;100.00
17383;BME280;8809;51.892;8.384;2023-03-22T01:55:58;100000.88;;;10.20;100.00
17383;BME280;8809;51.892;8.384;2023-03-22T01:58:25;99995.69;;;10.20;100.00
17383;BME280;8809;51.892;8.384;2023-03-22T02:00:53;99995.69;;;10.20;100.00
17383;BME280;8809;51.892;8.384;2023-03-22T02:03:27;99992.19;;;10.19;100.00
17383;BME280;8809;51.892;8.384;2023-03-22T02:05:56;99999.22;;;10.22;100.00
17383;BME280;8809;51.892;8.384;2023-03-22T02:08:23;99997.50;;;10.22;100.00
17383;BME280;8809;51.892;8.384;2023-03-22T02:10:51;99987.97;;;10.23;100.00
17383;BME280;8809;51.892;8.384;2023-03-22T02:13:37;99985.31;;;10.21;100.00
17383;BME280;8809;51.892;8.384;2023-03-22T02:16:21;99979.19;;;10.21;100.00
17383;BME280;8809;51.892;8.384;2023-03-22T02:19:10;99983.59;;;10.22;100.00
17383;BME280;8809;51.892;8.384;2023-03-22T02:22:07;99977.53;;;10.23;100.00
17383;BME280;8809;51.892;8.384;2023-03-22T02:27:56;99976.66;;;10.22;100.00
17383;BME280;8809;51.892;8.384;2023-03-22T02:31:00;99967.13;;;10.23;100.00
17383;BME280;8809;51.892;8.384;2023-03-22T02:33:40;99972.38;;;10.24;100.00
17383;BME280;8809;51.892;8.384;2023-03-22T02:36:34;99968.00;;;10.23;100.00
17383;BME280;8809;51.892;8.384;2023-03-22T02:39:14;99968.88;;;10.24;100.00
17383;BME280;8809;51.892;8.384;2023-03-22T02:41:57;99972.31;;;10.23;100.00
17383;BME280;8809;51.892;8.384;2023-03-22T02:44:33;99955.81;;;10.22;100.00
17383;BME280;8809;51.892;8.384;2023-03-22T02:47:03;99960.97;;;10.21;100.00
17383;BME280;8809;51.892;8.384;2023-03-22T02:49:35;99959.25;;;10.21;100.00
17383;BME280;8809;51.892;8.384;2023-03-22T02:52:10;99961.84;;;10.21;100.00
17383;BME280;8809;51.892;8.384;2023-03-22T02:54:47;99949.63;;;10.19;100.00
17383;BME280;8809;51.892;8.384;2023-03-22T02:57:21;99945.25;;;10.19;100.00
17383;BME280;8809;51.892;8.384;2023-03-22T02:59:52;99942.63;;;10.18;100.00
17383;BME280;8809;51.892;8.384;2023-03-22T03:02:21;99943.38;;;10.15;100.00
17383;BME280;8809;51.892;8.384;2023-03-22T03:04:50;99941.56;;;10.13;100.00
17383;BME280;8809;51.892;8.384;2023-03-22T03:07:21;99941.56;;;10.13;100.00
17383;BME280;8809;51.892;8.384;2023-03-22T03:09:51;99938.94;;;10.13;100.00
17383;BME280;8809;51.892;8.384;2023-03-22T03:12:22;99938.84;;;10.10;100.00
17383;BME280;8809;51.892;8.384;2023-03-22T03:14:50;99936.16;;;10.07;100.00
17383;BME280;8809;51.892;8.384;2023-03-22T03:17:26;99928.22;;;10.03;100.00
17383;BME280;8809;51.892;8.384;2023-03-22T03:20:08;99932.44;;;10.00;100.00
17383;BME280;8809;51.892;8.384;2023-03-22T03:22:48;99926.38;;;9.99;100.00
17383;BME280;8809;51.892;8.384;2023-03-22T03:25:23;99927.19;;;9.98;100.00
17383;BME280;8809;51.892;8.384;2023-03-22T03:27:58;99930.59;;;9.96;100.00
17383;BME280;8809;51.892;8.384;2023-03-22T03:30:32;99919.28;;;9.95;100.00
17383;BME280;8809;51.892;8.384;2023-03-22T03:33:03;99923.66;;;9.96;100.00
17383;BME280;8809;51.892;8.384;2023-03-22T03:35:37;99924.59;;;9.98;100.00
17383;BME280;8809;51.892;8.384;2023-03-22T03:38:09;99925.50;;;10.00;100.00
17383;BME280;8809;51.892;8.384;2023-03-22T03:40:42;99919.41;;;10.00;100.00
17383;BME280;8809;51.892;8.384;2023-03-22T03:43:11;99909.88;;;10.00;100.00
17383;BME280;8809;51.892;8.384;2023-03-22T03:45:39;99909.94;;;10.02;100.00
17383;BME280;8809;51.892;8.384;2023-03-22T03:48:14;99914.34;;;10.04;100.00
17383;BME280;8809;51.892;8.384;2023-03-22T03:50:44;99909.16;;;10.04;100.00
17383;BME280;8809;51.892;8.384;2023-03-22T03:53:12;99904.88;;;10.07;100.00
17383;BME280;8809;51.892;8.384;2023-03-22T03:55:40;99907.53;;;10.08;100.00
17383;BME280;8809;51.892;8.384;2023-03-22T03:58:07;99908.50;;;10.12;100.00
17383;BME280;8809;51.892;8.384;2023-03-22T04:00:35;99906.78;;;10.12;100.00
17383;BME280;8809;51.892;8.384;2023-03-22T04:03:03;99907.66;;;10.13;100.00
17383;BME280;8809;51.892;8.384;2023-03-22T04:05:31;99905.16;;;10.16;100.00
17383;BME280;8809;51.892;8.384;2023-03-22T04:07:58;99900.78;;;10.15;100.00
17383;BME280;8809;51.892;8.384;2023-03-22T04:10:26;99913.00;;;10.16;100.00
17383;BME280;8809;51.892;8.384;2023-03-22T04:12:54;99912.09;;;10.15;100.00
17383;BME280;8809;51.892;8.384;2023-03-22T04:15:22;99911.28;;;10.16;100.00
17383;BME280;8809;51.892;8.384;2023-03-22T04:17:49;99907.84;;;10.17;100.00
17383;BME280;8809;51.892;8.384;2023-03-22T04:20:18;99906.94;;;10.17;100.00
17383;BME280;8809;51.892;8.384;2023-03-22T04:22:45;99900.78;;;10.15;100.00
17383;BME280;8809;51.892;8.384;2023-03-22T04:25:14;99895.56;;;10.15;100.00
17383;BME280;8809;51.892;8.384;2023-03-22T04:27:44;99896.34;;;10.12;100.00
17383;BME280;8809;51.892;8.384;2023-03-22T04:30:16;99896.34;;;10.12;100.00
17383;BME280;8809;51.892;8.384;2023-03-22T04:32:44;99892.88;;;10.12;100.00
17383;BME280;8809;51.892;8.384;2023-03-22T04:35:12;99899.84;;;10.13;100.00
17383;BME280;8809;51.892;8.384;2023-03-22T04:37:40;99894.63;;;10.13;100.00
17383;BME280;8809;51.892;8.384;2023-03-22T04:40:08;99895.56;;;10.15;100.00
17383;BME280;8809;51.892;8.384;2023-03-22T04:42:42;99889.44;;;10.13;100.00
17383;BME280;8809;51.892;8.384;2023-03-22T04:45:10;99891.91;;;10.10;100.00
17383;BME280;8809;51.892;8.384;2023-03-22T04:47:39;99893.69;;;10.11;100.00
17383;BME280;8809;51.892;8.384;2023-03-22T04:50:07;99890.19;;;10.09;100.00
17383;BME280;8809;51.892;8.384;2023-03-22T04:52:34;99888.34;;;10.06;100.00
17383;BME280;8809;51.892;8.384;2023-03-22T04:55:01;99894.34;;;10.03;100.00
17383;BME280;8809;51.892;8.384;2023-03-22T04:57:28;99895.19;;;10.02;100.00
17383;BME280;8809;51.892;8.384;2023-03-22T04:59:55;99891.63;;;10.00;100.00
17383;BME280;8809;51.892;8.384;2023-03-22T05:02:22;99889.88;;;9.99;100.00
17383;BME280;8809;51.892;8.384;2023-03-22T05:04:50;99892.44;;;9.98;100.00
17383;BME280;8809;51.892;8.384;2023-03-22T05:07:17;99884.56;;;9.96;100.00
17383;BME280;8809;51.892;8.384;2023-03-22T05:09:44;99895.81;;;9.95;100.00
17383;BME280;8809;51.892;8.384;2023-03-22T05:12:11;99894.94;;;9.95;100.00
17383;BME280;8809;51.892;8.384;2023-03-22T05:14:38;99892.16;;;9.90;100.00
17383;BME280;8809;51.892;8.384;2023-03-22T05:17:05;99887.81;;;9.89;100.00
17383;BME280;8809;51.892;8.384;2023-03-22T05:19:32;99883.44;;;9.88;100.00
17383;BME280;8809;51.892;8.384;2023-03-22T05:22:00;99878.22;;;9.88;100.00
17383;BME280;8809;51.892;8.384;2023-03-22T05:24:27;99878.06;;;9.84;100.00
17383;BME280;8809;51.892;8.384;2023-03-22T05:26:55;99878.06;;;9.84;100.00
17383;BME280;8809;51.892;8.384;2023-03-22T05:29:26;99882.38;;;9.83;100.00
17383;BME280;8809;51.892;8.384;2023-03-22T05:31:53;99877.94;;;9.79;100.00
17383;BME280;8809;51.892;8.384;2023-03-22T05:34:20;99884.81;;;9.77;100.00
17383;BME280;8809;51.892;8.384;2023-03-22T05:36:47;99883.81;;;9.74;100.00
17383;BME280;8809;51.892;8.384;2023-03-22T05:39:17;99875.03;;;9.70;100.00
17383;BME280;8809;51.892;8.384;2023-03-22T05:41:45;99875.75;;;9.66;100.00
17383;BME280;8809;51.892;8.384;2023-03-22T05:44:12;99867.94;;;9.66;100.00
17383;BME280;8809;51.892;8.384;2023-03-22T05:46:39;99871.25;;;9.62;100.00
17383;BME280;8809;51.892;8.384;2023-03-22T05:49:06;99871.25;;;9.62;100.00
17383;BME280;8809;51.892;8.384;2023-03-22T05:51:32;99870.34;;;9.60;100.00
17383;BME280;8809;51.892;8.384;2023-03-22T05:54:06;99876.25;;;9.56;100.00
17383;BME280;8809;51.892;8.384;2023-03-22T05:56:35;99877.97;;;9.55;100.00
17383;BME280;8809;51.892;8.384;2023-03-22T05:59:04;99871.88;;;9.55;100.00
17383;BME280;8809;51.892;8.384;2023-03-22T06:01:31;99880.66;;;9.57;100.00
17383;BME280;8809;51.892;8.384;2023-03-22T06:03:58;99873.66;;;9.56;100.00
17383;BME280;8809;51.892;8.384;2023-03-22T06:06:26;99872.00;;;9.58;100.00
17383;BME280;8809;51.892;8.384;2023-03-22T06:08:53;99869.41;;;9.58;100.00
17383;BME280;8809;51.892;8.384;2023-03-22T06:11:21;99867.63;;;9.57;100.00
17383;BME280;8809;51.892;8.384;2023-03-22T06:13:49;99873.78;;;9.59;100.00
17383;BME280;8809;51.892;8.384;2023-03-22T06:16:17;99875.56;;;9.61;100.00
17383;BME280;8809;51.892;8.384;2023-03-22T06:18:44;99868.81;;;9.66;100.00
17383;BME280;8809;51.892;8.384;2023-03-22T06:21:11;99869.91;;;9.73;100.00
17383;BME280;8809;51.892;8.384;2023-03-22T06:23:38;99871.03;;;9.81;100.00
17383;BME280;8809;51.892;8.384;2023-03-22T06:26:05;99875.63;;;9.88;100.00
17383;BME280;8809;51.892;8.384;2023-03-22T06:28:34;99866.28;;;9.95;100.00
17383;BME280;8809;51.892;8.384;2023-03-22T06:31:06;99861.25;;;10.01;100.00
17383;BME280;8809;51.892;8.384;2023-03-22T06:33:33;99864.00;;;10.05;100.00
17383;BME280;8809;51.892;8.384;2023-03-22T06:36:00;99863.25;;;10.10;100.00
17383;BME280;8809;51.892;8.384;2023-03-22T06:38:28;99867.84;;;10.17;100.00
17383;BME280;8809;51.892;8.384;2023-03-22T06:40:55;99868.84;;;10.20;100.00
17383;BME280;8809;51.892;8.384;2023-03-22T06:43:22;99879.53;;;10.28;100.00
17383;BME280;8809;51.892;8.384;2023-03-22T06:45:49;99862.34;;;10.34;100.00
17383;BME280;8809;51.892;8.384;2023-03-22T06:48:18;99864.19;;;10.38;100.00
17383;BME280;8809;51.892;8.384;2023-03-22T06:50:45;99859.06;;;10.41;100.00
17383;BME280;8809;51.892;8.384;2023-03-22T06:53:12;99866.94;;;10.43;100.00
17383;BME280;8809;51.892;8.384;2023-03-22T06:55:39;99862.63;;;10.44;100.00
17383;BME280;8809;51.892;8.384;2023-03-22T06:58:07;99858.34;;;10.46;100.00
17383;BME280;8809;51.892;8.384;2023-03-22T07:00:34;99863.63;;;10.47;100.00
17383;BME280;8809;51.892;8.384;2023-03-22T07:03:03;99867.06;;;10.48;100.00
17383;BME280;8809;51.892;8.384;2023-03-22T07:05:31;99859.25;;;10.48;100.00
17383;BME280;8809;51.892;8.384;2023-03-22T07:07:58;99861.84;;;10.46;100.00
17383;BME280;8809;51.892;8.384;2023-03-22T07:10:27;99856.69;;;10.49;100.00
17383;BME280;8809;51.892;8.384;2023-03-22T07:12:54;99857.78;;;10.56;100.00
17383;BME280;8809;51.892;8.384;2023-03-22T07:15:23;99853.44;;;10.56;100.00
17383;BME280;8809;51.892;8.384;2023-03-22T07:17:50;99851.75;;;10.58;100.00
17383;BME280;8809;51.892;8.384;2023-03-22T07:20:18;99854.41;;;10.60;100.00
17383;BME280;8809;51.892;8.384;2023-03-22T07:22:49;99851.94;;;10.64;100.00
17383;BME280;8809;51.892;8.384;2023-03-22T07:25:17;99847.69;;;10.68;100.00
17383;BME280;8809;51.892;8.384;2023-03-22T07:27:44;99835.66;;;10.73;100.00
17383;BME280;8809;51.892;8.384;2023-03-22T07:30:11;99842.81;;;10.80;100.00
17383;BME280;8809;51.892;8.384;2023-03-22T07:32:40;99837.66;;;10.82;100.00
17383;BME280;8809;51.892;8.384;2023-03-22T07:35:07;99833.44;;;10.87;100.00
17383;BME280;8809;51.892;8.384;2023-03-22T07:37:35;99839.63;;;10.90;100.00
17383;BME280;8809;51.892;8.384;2023-03-22T07:40:07;99837.03;;;10.90;100.00
17383;BME280;8809;51.892;8.384;2023-03-22T07:42:34;99828.41;;;10.93;100.00
17383;BME280;8809;51.892;8.384;2023-03-22T07:45:02;99826.72;;;10.95;100.00
17383;BME280;8809;51.892;8.384;2023-03-22T07:47:29;99817.97;;;10.93;100.00
17383;BME280;8809;51.892;8.384;2023-03-22T07:49:56;99821.56;;;10.98;100.00
17383;BME280;8809;51.892;8.384;2023-03-22T07:52:24;99825.09;;;11.00;100.00
17383;BME280;8809;51.892;8.384;2023-03-22T07:54:50;99814.72;;;11.01;100.00
17383;BME280;8809;51.892;8.384;2023-03-22T07:57:19;99820.03;;;11.04;100.00
17383;BME280;8809;51.892;8.384;2023-03-22T07:59:46;99821.81;;;11.07;100.00
17383;BME280;8809;51.892;8.384;2023-03-22T08:02:13;99817.56;;;11.10;100.00
17383;BME280;8809;51.892;8.384;2023-03-22T08:04:42;99811.56;;;11.13;100.00
17383;BME280;8809;51.892;8.384;2023-03-22T08:07:09;99813.34;;;11.15;100.00
17383;BME280;8809;51.892;8.384;2023-03-22T08:09:36;99823.84;;;11.17;100.00
17383;BME280;8809;51.892;8.384;2023-03-22T08:12:04;99826.63;;;11.23;100.00
17383;BME280;8809;51.892;8.384;2023-03-22T08:14:33;99826.63;;;11.25;100.00
17383;BME280;8809;51.892;8.384;2023-03-22T08:17:01;99825.16;;;11.34;100.00
17383;BME280;8809;51.892;8.384;2023-03-22T08:19:28;99820.91;;;11.38;100.00
17383;BME280;8809;51.892;8.384;2023-03-22T08:21:56;99825.41;;;11.43;100.00
17383;BME280;8809;51.892;8.384;2023-03-22T08:24:24;99819.56;;;11.53;100.00
17383;BME280;8809;51.892;8.384;2023-03-22T08:26:52;99824.03;;;11.58;100.00
17383;BME280;8809;51.892;8.384;2023-03-22T08:29:19;99825.09;;;11.66;100.00
17383;BME280;8809;51.892;8.384;2023-03-22T08:31:49;99813.97;;;11.74;100.00
17383;BME280;8809;51.892;8.384;2023-03-22T08:34:17;99821.03;;;11.77;100.00
17383;BME280;8809;51.892;8.384;2023-03-22T08:36:44;99829.03;;;11.83;100.00
17383;BME280;8809;51.892;8.384;2023-03-22T08:39:11;99821.34;;;11.89;100.00
17383;BME280;8809;51.892;8.384;2023-03-22T08:41:39;99817.94;;;11.93;100.00
17383;BME280;8809;51.892;8.384;2023-03-22T08:44:06;99807.69;;;12.01;100.00
17383;BME280;8809;51.892;8.384;2023-03-22T08:46:33;99807.91;;;12.11;100.00
17383;BME280;8809;51.892;8.384;2023-03-22T08:49:02;99804.63;;;12.20;100.00
17383;BME280;8809;51.892;8.384;2023-03-22T08:51:29;99800.34;;;12.23;100.00
17383;BME280;8809;51.892;8.384;2023-03-22T08:53:57;99805.81;;;12.34;100.00
17383;BME280;8809;51.892;8.384;2023-03-22T08:56:25;99792.00;;;12.40;100.00
17383;BME280;8809;51.892;8.384;2023-03-22T08:58:53;99805.25;;;12.49;100.00
17383;BME280;8809;51.892;8.384;2023-03-22T09:01:20;99795.75;;;12.54;100.00
17383;BME280;8809;51.892;8.384;2023-03-22T09:03:47;99809.16;;;12.69;100.00
17383;BME280;8809;51.892;8.384;2023-03-22T09:06:15;99800.44;;;12.69;100.00
17383;BME280;8809;51.892;8.384;2023-03-22T09:08:42;99798.75;;;12.72;100.00
17383;BME280;8809;51.892;8.384;2023-03-22T09:11:10;99793.63;;;12.77;100.00
17383;BME280;8809;51.892;8.384;2023-03-22T09:13:38;99802.22;;;12.71;100.00
17383;BME280;8809;51.892;8.384;2023-03-22T09:16:07;99804.81;;;12.70;100.00
17383;BME280;8809;51.892;8.384;2023-03-22T09:18:34;99796.97;;;12.71;100.00
17383;BME280;8809;51.892;8.384;2023-03-22T09:21:01;99795.19;;;12.67;100.00
17383;BME280;8809;51.892;8.384;2023-03-22T09:23:30;99797.78;;;12.67;100.00
17383;BME280;8809;51.892;8.384;2023-03-22T09:25:59;99801.38;;;12.72;100.00
17383;BME280;8809;51.892;8.384;2023-03-22T09:28:27;99798.00;;;12.79;100.00
17383;BME280;8809;51.892;8.384;2023-03-22T09:30:59;99794.66;;;12.85;100.00
17383;BME280;8809;51.892;8.384;2023-03-22T09:33:26;99789.66;;;12.97;100.00
17383;BME280;8809;51.892;8.384;2023-03-22T09:35:54;99782.69;;;12.99;100.00
17383;BME280;8809;51.892;8.384;2023-03-22T09:38:23;99767.16;;;13.07;100.00
17383;BME280;8809;51.892;8.384;2023-03-22T09:40:55;99782.28;;;13.21;100.00
17383;BME280;8809;51.892;8.384;2023-03-22T09:43:26;99771.72;;;13.18;100.00
17383;BME280;8809;51.892;8.384;2023-03-22T09:45:55;99777.91;;;13.22;100.00
17383;BME280;8809;51.892;8.384;2023-03-22T09:48:27;99773.59;;;13.24;100.00
17383;BME280;8809;51.892;8.384;2023-03-22T09:50:56;99783.31;;;13.31;100.00
17383;BME280;8809;51.892;8.384;2023-03-22T09:53:27;99777.25;;;13.33;100.00
17383;BME280;8809;51.892;8.384;2023-03-22T09:56:06;99766.78;;;13.33;100.00
17383;BME280;8809;51.892;8.384;2023-03-22T09:58:41;99771.13;;;13.33;100.00
17383;BME280;8809;51.892;8.384;2023-03-22T10:01:15;99771.16;;;13.36;100.00
17383;BME280;8809;51.892;8.384;2023-03-22T10:04:06;99771.13;;;13.33;100.00
17383;BME280;8809;51.892;8.384;2023-03-22T10:06:41;99765.81;;;13.30;100.00
17383;BME280;8809;51.892;8.384;2023-03-22T10:09:14;99766.84;;;13.38;100.00
17383;BME280;8809;51.892;8.384;2023-03-22T10:11:46;99758.25;;;13.47;100.00
17383;BME280;8809;51.892;8.384;2023-03-22T10:14:28;99761.78;;;13.49;100.00
17383;BME280;8809;51.892;8.384;2023-03-22T10:16:58;99760.22;;;13.60;100.00
17383;BME280;8809;51.892;8.384;2023-03-22T10:19:34;99757.69;;;13.64;100.00
17383;BME280;8809;51.892;8.384;2023-03-22T10:22:09;99750.09;;;13.84;100.00
17383;BME280;8809;51.892;8.384;2023-03-22T10:24:40;99745.75;;;13.86;100.00
17383;BME280;8809;51.892;8.384;2023-03-22T10:27:15;99747.56;;;13.89;98.42
17383;BME280;8809;51.892;8.384;2023-03-22T10:29:45;99753.59;;;13.83;98.75
17383;BME280;8809;51.892;8.384;2023-03-22T10:32:16;99757.97;;;13.83;100.00
17383;BME280;8809;51.892;8.384;2023-03-22T10:34:44;99745.00;;;13.93;98.91
17383;BME280;8809;51.892;8.384;2023-03-22T10:37:14;99748.69;;;14.07;96.58
17383;BME280;8809;51.892;8.384;2023-03-22T10:39:44;99765.25;;;14.05;95.11
17383;BME280;8809;51.892;8.384;2023-03-22T10:42:18;99746.13;;;14.13;97.73
17383;BME280;8809;51.892;8.384;2023-03-22T10:44:48;99766.19;;;14.08;94.73
17383;BME280;8809;51.892;8.384;2023-03-22T10:47:19;99751.38;;;14.10;95.42
17383;BME280;8809;51.892;8.384;2023-03-22T10:49:55;99752.28;;;14.13;95.24
17383;BME280;8809;51.892;8.384;2023-03-22T10:52:33;99761.84;;;14.09;93.26
17383;BME280;8809;51.892;8.384;2023-03-22T10:55:03;99762.75;;;14.14;95.53
17383;BME280;8809;51.892;8.384;2023-03-22T10:57:32;99757.63;;;14.20;94.53
17383;BME280;8809;51.892;8.384;2023-03-22T10:59:59;99761.13;;;14.24;94.49
17383;BME280;8809;51.892;8.384;2023-03-22T11:02:28;99764.56;;;14.17;96.77
17383;BME280;8809;51.892;8.384;2023-03-22T11:04:58;99779.53;;;14.25;93.85
17383;BME280;8809;51.892;8.384;2023-03-22T11:07:29;99765.44;;;14.17;93.97
17383;BME280;8809;51.892;8.384;2023-03-22T11:09:58;99774.16;;;14.16;93.96
17383;BME280;8809;51.892;8.384;2023-03-22T11:12:29;99757.56;;;14.17;95.53
17383;BME280;8809;51.892;8.384;2023-03-22T11:14:58;99755.06;;;14.26;95.87
17383;BME280;8809;51.892;8.384;2023-03-22T11:17:25;99757.75;;;14.31;93.08
17383;BME280;8809;51.892;8.384;2023-03-22T11:19:55;99763.09;;;14.38;94.15
17383;BME280;8809;51.892;8.384;2023-03-22T11:22:28;99765.03;;;14.50;92.26
17383;BME280;8809;51.892;8.384;2023-03-22T11:24:58;99771.28;;;14.60;91.41
17383;BME280;8809;51.892;8.384;2023-03-22T11:27:27;99764.34;;;14.66;90.67
17383;BME280;8809;51.892;8.384;2023-03-22T11:29:59;99766.94;;;14.63;90.59
17383;BME280;8809;51.892;8.384;2023-03-22T11:32:35;99764.34;;;14.66;91.59
17383;BME280;8809;51.892;8.384;2023-03-22T11:35:09;99767.88;;;14.71;90.09
17383;BME280;8809;51.892;8.384;2023-03-22T11:37:46;99761.59;;;14.56;89.37
17383;BME280;8809;51.892;8.384;2023-03-22T11:40:18;99762.50;;;14.58;91.44
17383;BME280;8809;51.892;8.384;2023-03-22T11:42:49;99764.22;;;14.56;91.58
17383;BME280;8809;51.892;8.384;2023-03-22T11:45:26;99769.50;;;14.59;98.43
17383;BME280;8809;51.892;8.384;2023-03-22T11:47:54;99762.56;;;14.64;93.71
17383;BME280;8809;51.892;8.384;2023-03-22T11:50:29;99768.69;;;14.64;88.73
17383;BME280;8809;51.892;8.384;2023-03-22T11:53:00;99767.91;;;14.70;92.75
17383;BME280;8809;51.892;8.384;2023-03-22T11:55:29;99757.41;;;14.73;96.31
17383;BME280;8809;51.892;8.384;2023-03-22T11:57:57;99752.13;;;14.71;100.00
17383;BME280;8809;51.892;8.384;2023-03-22T12:00:27;99766.13;;;14.67;93.65
17383;BME280;8809;51.892;8.384;2023-03-22T12:03:01;99753.75;;;14.59;94.89
17383;BME280;8809;51.892;8.384;2023-03-22T12:05:32;99746.72;;;14.56;94.65
17383;BME280;8809;51.892;8.384;2023-03-22T12:08:04;99737.16;;;14.61;100.00
17383;BME280;8809;51.892;8.384;2023-03-22T12:10:37;99741.56;;;14.64;90.97
17383;BME280;8809;51.892;8.384;2023-03-22T12:13:11;99735.56;;;14.74;89.32
17383;BME280;8809;51.892;8.384;2023-03-22T12:15:47;99738.31;;;14.86;89.41
17383;BME280;8809;51.892;8.384;2023-03-22T12:18:16;99741.84;;;14.88;86.57
17383;BME280;8809;51.892;8.384;2023-03-22T12:20:50;99733.97;;;14.88;84.38
17383;BME280;8809;51.892;8.384;2023-03-22T12:23:21;99734.97;;;15.02;83.86
17383;BME280;8809;51.892;8.384;2023-03-22T12:25:50;99723.59;;;15.03;85.07
17383;BME280;8809;51.892;8.384;2023-03-22T12:28:22;99732.34;;;15.02;86.63
17383;BME280;8809;51.892;8.384;2023-03-22T12:30:53;99736.69;;;15.00;81.43
17383;BME280;8809;51.892;8.384;2023-03-22T12:33:25;99734.91;;;14.95;81.42
17383;BME280;8809;51.892;8.384;2023-03-22T12:35:55;99719.94;;;14.86;82.33
17383;BME280;8809;51.892;8.384;2023-03-22T12:38:28;99725.19;;;14.86;83.20
17383;BME280;8809;51.892;8.384;2023-03-22T12:41:02;99725.19;;;14.86;81.76
17383;BME280;8809;51.892;8.384;2023-03-22T12:43:38;99727.81;;;14.86;83.51
17383;BME280;8809;51.892;8.384;2023-03-22T12:46:15;99726.06;;;14.87;82.56
17383;BME280;8809;51.892;8.384;2023-03-22T12:48:47;99730.47;;;14.88;82.76
17383;BME280;8809;51.892;8.384;2023-03-22T12:51:15;99714.69;;;14.88;82.50
17383;BME280;8809;51.892;8.384;2023-03-22T12:53:44;99731.25;;;14.82;81.11
17383;BME280;8809;51.892;8.384;2023-03-22T12:56:15;99723.34;;;14.80;82.97
17383;BME280;8809;51.892;8.384;2023-03-22T12:58:46;99722.41;;;14.74;85.44
17383;BME280;8809;51.892;8.384;2023-03-22T13:01:22;99728.47;;;14.67;88.25
17383;BME280;8809;51.892;8.384;2023-03-22T13:03:54;99717.91;;;14.62;88.19
17383;BME280;8809;51.892;8.384;2023-03-22T13:06:31;99718.84;;;14.66;87.03
17383;BME280;8809;51.892;8.384;2023-03-22T13:09:11;99720.41;;;14.52;90.68
17383;BME280;8809;51.892;8.384;2023-03-22T13:11:40;99715.25;;;14.58;91.89
17383;BME280;8809;51.892;8.384;2023-03-22T13:14:12;99736.75;;;14.32;92.35
17383;BME280;8809;51.892;8.384;2023-03-22T13:16:50;99718.16;;;14.14;99.25
17383;BME280;8809;51.892;8.384;2023-03-22T13:19:31;99726.91;;;14.13;95.27
17383;BME280;8809;51.892;8.384;2023-03-22T13:22:20;99722.50;;;14.09;93.36